createdAt,value
2018-10-16T00:01:31.474Z,8.40
2018-10-16T00:05:36.823Z,11.50
2018-10-16T00:09:41.367Z,11.23
2018-10-16T00:13:45.927Z,13.83
2018-10-16T00:17:50.241Z,11.53
2018-10-16T00:21:54.666Z,11.63
2018-10-16T00:25:59.011Z,12.37
2018-10-16T00:30:03.359Z,11.37
2018-10-16T00:34:07.840Z,15.77
2018-10-16T00:38:12.257Z,12.03
2018-10-16T00:42:16.806Z,14.87
2018-10-16T00:46:21.447Z,13.13
2018-10-16T00:50:25.691Z,12.17
2018-10-16T00:54:29.746Z,12.83
2018-10-16T00:58:33.782Z,11.63
2018-10-16T01:02:37.990Z,10.83
2018-10-16T01:06:42.368Z,16.97
2018-10-16T01:10:47.206Z,16.30
2018-10-16T01:14:51.639Z,13.67
2018-10-16T01:18:55.973Z,12.87
2018-10-16T01:22:59.997Z,11.67
2018-10-16T01:27:03.984Z,17.33
2018-10-16T01:31:08.331Z,14.17
2018-10-16T01:35:13.106Z,13.17
2018-10-16T01:39:17.118Z,18.30
2018-10-16T01:43:21.412Z,15.77
2018-10-16T01:47:25.483Z,14.97
2018-10-16T01:51:29.601Z,12.83
2018-10-16T01:55:34.531Z,13.53
2018-10-16T01:59:38.527Z,15.83
2018-10-16T02:03:42.646Z,12.73
2018-10-16T02:07:49.203Z,14.70
2018-10-16T02:11:53.331Z,13.37
2018-10-16T02:15:57.569Z,13.70
2018-10-16T02:20:01.692Z,15.43
2018-10-16T02:24:05.843Z,10.73
2018-10-16T02:28:10.036Z,15.80
2018-10-16T02:32:14.068Z,14.20
2018-10-16T02:36:18.061Z,14.03
2018-10-16T02:40:22.022Z,13.13
2018-10-16T02:44:26.009Z,12.43
2018-10-16T02:48:30.286Z,10.97
2018-10-16T02:52:34.255Z,16.10
2018-10-16T02:56:38.358Z,15.50
2018-10-16T03:00:42.463Z,13.73
2018-10-16T03:04:46.398Z,11.77
2018-10-16T03:08:51.495Z,15.77
2018-10-16T03:12:55.517Z,16.13
2018-10-16T03:16:59.700Z,13.43
2018-10-16T03:21:03.657Z,13.20
2018-10-16T03:25:08.834Z,13.27
2018-10-16T03:29:12.863Z,12.43
2018-10-16T03:33:16.975Z,14.70
2018-10-16T03:37:20.979Z,15.70
2018-10-16T03:41:25.038Z,17.40
2018-10-16T03:45:28.974Z,12.90
2018-10-16T03:49:33.037Z,13.83
2018-10-16T03:53:37.001Z,15.87
2018-10-16T03:57:41.015Z,15.10
2018-10-16T04:01:45.104Z,17.13
2018-10-16T04:05:50.144Z,14.47
2018-10-16T04:09:54.883Z,14.90
2018-10-16T04:13:59.077Z,15.17
2018-10-16T04:18:03.356Z,17.97
2018-10-16T04:22:07.765Z,15.23
2018-10-16T04:26:13.158Z,14.53
2018-10-16T04:30:17.374Z,13.07
2018-10-16T04:34:21.722Z,13.17
2018-10-16T04:38:25.938Z,13.50
2018-10-16T04:42:30.364Z,13.47
2018-10-16T04:46:34.598Z,12.07
2018-10-16T04:50:38.935Z,17.87
2018-10-16T04:54:43.074Z,15.83
2018-10-16T04:58:46.964Z,14.60
2018-10-16T05:02:50.993Z,14.00
2018-10-16T05:06:55.074Z,13.20
2018-10-16T05:10:59.077Z,15.17
2018-10-16T05:15:03.120Z,12.20
2018-10-16T05:19:07.219Z,16.30
2018-10-16T05:23:11.287Z,18.23
2018-10-16T05:27:15.283Z,17.43
2018-10-16T05:31:19.607Z,16.47
2018-10-16T05:35:23.808Z,16.37
2018-10-16T05:39:29.173Z,16.23
2018-10-16T05:43:33.772Z,19.27
2018-10-16T05:47:38.124Z,16.30
2018-10-16T05:51:42.818Z,14.67
2018-10-16T05:55:47.053Z,17.77
2018-10-16T05:59:55.065Z,15.73
2018-10-16T06:03:59.270Z,14.03
2018-10-16T06:08:04.519Z,17.03
2018-10-16T06:12:09.844Z,21.23
2018-10-16T06:16:13.846Z,19.33
2018-10-16T06:20:18.098Z,16.63
2018-10-16T06:24:22.408Z,17.43
2018-10-16T06:28:28.101Z,17.13
2018-10-16T06:32:32.226Z,18.00
2018-10-16T06:36:36.426Z,13.73
2018-10-16T06:40:41.861Z,16.10
2018-10-16T06:44:45.994Z,18.07
2018-10-16T06:48:51.418Z,19.03
2018-10-16T06:52:55.600Z,16.90
2018-10-16T06:57:00.122Z,20.17
2018-10-16T07:01:04.863Z,16.40
2018-10-16T07:05:09.246Z,17.80
2018-10-16T07:09:13.865Z,22.90
2018-10-16T07:13:19.361Z,18.87
2018-10-16T07:17:23.870Z,17.13
2018-10-16T07:21:28.267Z,18.03
2018-10-16T07:25:41.633Z,17.87
2018-10-16T07:34:02.846Z,17.30
2018-10-16T07:38:07.502Z,16.27
2018-10-16T07:42:14.561Z,19.90
2018-10-16T07:46:20.910Z,19.33
2018-10-16T07:50:28.301Z,17.20
2018-10-16T07:54:39.827Z,19.20
2018-10-16T07:58:59.112Z,20.37
2018-10-16T16:59:38.286Z,13.83
2018-10-16T17:03:42.556Z,11.63
2018-10-16T18:22:21.623Z,14.33
2018-10-16T18:40:07.632Z,12.43
2018-10-16T18:53:47.614Z,14.90
2018-10-16T18:57:53.730Z,16.73
2018-10-16T21:44:49.555Z,22.20
2018-10-16T21:48:54.368Z,22.03
2018-10-16T21:52:58.661Z,21.63
2018-10-16T22:01:14.809Z,22.60
2018-10-16T22:05:23.845Z,22.57
2018-10-16T22:09:28.027Z,20.90
2018-10-16T22:13:32.032Z,26.27
2018-10-16T22:17:36.011Z,23.50
2018-10-16T22:21:40.002Z,24.63
2018-10-16T22:25:43.980Z,21.63
2018-10-16T22:29:47.969Z,24.27
2018-10-16T22:33:52.718Z,21.40
2018-10-16T22:37:56.672Z,24.90
2018-10-16T22:42:00.440Z,21.30
2018-10-16T22:46:04.218Z,22.47
2018-10-16T22:50:11.443Z,25.20
2018-10-16T22:54:15.363Z,22.77
2018-10-16T22:58:19.282Z,23.37
2018-10-16T23:02:23.593Z,24.77
2018-10-16T23:06:27.473Z,23.07
2018-10-16T23:10:31.433Z,22.80
2018-10-16T23:14:35.359Z,23.30
2018-10-16T23:18:39.290Z,22.00
2018-10-16T23:22:43.317Z,22.23
2018-10-16T23:26:47.267Z,21.73
2018-10-16T23:30:51.178Z,25.20
2018-10-16T23:34:55.232Z,23.80
2018-10-16T23:38:58.848Z,26.83
2018-10-16T23:43:02.804Z,23.57
2018-10-16T23:47:06.806Z,21.53
2018-10-16T23:51:10.595Z,20.30
2018-10-16T23:55:14.469Z,26.93
2018-10-16T23:59:18.344Z,21.97
